Time;durP1;ratioP1;P1;durP2;ratioP2;P2;SDS_P1;SDS_P2;PMS_P1;PMS_P2;Temp;Humidity;BMP_temperature;BMP_pressure;BME280_temperature;BME280_humidity;BME280_pressure;Samples;Min_cycle;Max_cycle;Signal;HPM_P1;HPM_P2
2022/08/27 00:01:15;;;;;;;2.83;2.63;;;;;;;20.86;73.13;98713.63;4935337;29;20415;-67
2022/08/27 00:03:43;;;;;;;2.78;2.58;;;;;;;20.88;73.08;98717.69;4935916;29;20044;-67
2022/08/27 00:06:13;;;;;;;3.35;3.05;;;;;;;20.88;73.10;98711.50;4928515;29;20051;-66
2022/08/27 00:08:44;;;;;;;4.07;3.78;;;;;;;20.89;72.70;98713.91;4937005;29;20051;-66
2022/08/27 00:11:12;;;;;;;3.65;3.35;;;;;;;20.90;72.83;98712.88;4936635;29;20063;-66
2022/08/27 00:13:39;;;;;;;3.30;3.00;;;;;;;20.91;72.89;98714.50;4919655;29;20443;-66
2022/08/27 00:16:08;;;;;;;3.70;3.40;;;;;;;20.94;73.28;98716.66;4934885;29;20472;-66
2022/08/27 00:18:37;;;;;;;3.38;3.17;;;;;;;20.98;72.92;98716.91;4935372;29;20129;-66
2022/08/27 00:21:03;;;;;;;4.55;3.78;;;;;;;20.99;72.69;98723.94;4936558;29;20075;-66
2022/08/27 00:23:33;;;;;;;3.33;3.13;;;;;;;20.99;73.11;98713.19;4919897;29;20396;-66
2022/08/27 00:26:00;;;;;;;3.00;2.80;;;;;;;21.01;73.15;98709.13;4936750;29;20399;-66
2022/08/27 00:28:28;;;;;;;3.20;3.00;;;;;;;21.01;73.20;98719.09;4936448;29;20051;-67
2022/08/27 00:30:55;;;;;;;3.42;3.13;;;;;;;21.01;73.15;98719.88;4919483;29;20123;-67
2022/08/27 00:33:23;;;;;;;3.80;3.50;;;;;;;21.03;73.05;98722.34;4929009;29;20044;-67
2022/08/27 00:35:50;;;;;;;3.50;3.25;;;;;;;21.04;73.46;98723.94;4911516;29;20154;-67
2022/08/27 00:38:18;;;;;;;2.85;2.65;;;;;;;21.05;73.39;98714.81;4919633;29;20055;-67
2022/08/27 00:40:45;;;;;;;3.00;2.80;;;;;;;21.06;73.13;98721.78;4936607;29;20406;-66
2022/08/27 00:43:12;;;;;;;3.08;2.85;;;;;;;21.06;73.03;98713.72;4937034;29;20044;-68
2022/08/27 00:45:43;;;;;;;4.22;3.92;;;;;;;21.04;73.06;98707.81;4952307;29;20043;-66
2022/08/27 00:48:14;;;;;;;4.07;3.78;;;;;;;21.04;73.05;98705.13;4954151;29;20084;-66
2022/08/27 00:50:51;;;;;;;4.22;3.83;;;;;;;21.02;72.99;98708.09;4953927;29;20046;-67
2022/08/27 00:53:22;;;;;;;3.90;3.60;;;;;;;20.98;73.47;98706.16;4954021;29;20050;-66
2022/08/27 00:55:53;;;;;;;3.47;3.17;;;;;;;20.97;73.19;98716.09;4953275;29;20083;-66
2022/08/27 00:58:32;;;;;;;4.30;3.90;;;;;;;20.98;73.43;98708.84;4953804;29;20070;-66
2022/08/27 01:01:00;;;;;;;3.20;3.00;;;;;;;20.99;73.65;98713.19;4953565;29;20095;-67
2022/08/27 01:03:27;;;;;;;2.80;2.60;;;;;;;20.99;73.47;98705.13;4943007;29;20047;-67
2022/08/27 01:05:57;;;;;;;3.28;2.97;;;;;;;20.97;73.32;98708.06;4941562;29;20043;-68
2022/08/27 01:08:28;;;;;;;3.53;3.22;;;;;;;20.96;73.62;98703.75;4949820;29;20056;-68
2022/08/27 01:10:57;;;;;;;3.88;3.58;;;;;;;20.93;73.79;98698.91;4949643;29;20103;-67
2022/08/27 01:13:28;;;;;;;4.75;4.22;;;;;;;20.91;73.77;98706.44;4920581;29;20059;-67
2022/08/27 01:16:25;;;;;;;4.72;4.32;;;;;;;20.89;73.64;98705.06;4933717;29;20051;-67
2022/08/27 01:18:54;;;;;;;5.85;5.13;;;;;;;20.88;73.60;98698.06;4935280;29;20043;-67
2022/08/27 01:21:31;;;;;;;5.65;5.15;;;;;;;20.85;73.80;98696.72;4935387;29;20064;-68
2022/08/27 01:24:20;;;;;;;5.53;5.03;;;;;;;20.86;73.82;98689.47;4918598;29;20051;-68
2022/08/27 01:26:48;;;;;;;5.35;4.85;;;;;;;20.83;73.92;98696.19;4935068;29;20054;-68
2022/08/27 01:29:16;;;;;;;5.80;5.30;;;;;;;20.83;73.78;98692.69;4935182;29;20054;-67
2022/08/27 01:31:43;;;;;;;6.32;5.72;;;;;;;20.81;73.60;98698.31;4935229;29;20059;-67
2022/08/27 01:34:09;;;;;;;6.50;5.95;;;;;;;20.77;73.51;98695.31;4906724;29;20048;-67
2022/08/27 01:36:36;;;;;;;7.40;6.70;;;;;;;20.78;73.75;98694.28;4930490;29;20519;-67
2022/08/27 01:39:03;;;;;;;6.35;5.75;;;;;;;20.81;73.64;98697.50;4935294;29;20044;-67
2022/08/27 01:41:30;;;;;;;8.00;7.05;;;;;;;20.76;73.91;98696.41;4933760;29;20048;-68
2022/08/27 01:43:57;;;;;;;6.13;5.63;;;;;;;20.73;73.52;98693.44;4935120;29;20075;-67
2022/08/27 01:46:26;;;;;;;5.07;4.65;;;;;;;20.71;73.51;98703.66;4934628;29;20055;-67
2022/08/27 01:48:54;;;;;;;3.97;3.67;;;;;;;20.75;73.85;98700.16;4935207;29;20044;-67
2022/08/27 01:51:21;;;;;;;3.92;3.63;;;;;;;20.82;73.97;98696.41;4934129;29;20048;-67
2022/08/27 01:53:47;;;;;;;4.82;4.43;;;;;;;20.87;73.91;98696.47;4935432;29;20050;-67
2022/08/27 01:56:14;;;;;;;5.95;5.43;;;;;;;20.88;73.91;98709.63;4917882;29;20052;-67
2022/08/27 01:58:42;;;;;;;6.65;6.05;;;;;;;20.89;73.59;98713.91;4934957;29;20054;-67
2022/08/27 02:01:13;;;;;;;6.90;6.30;;;;;;;20.87;73.50;98705.34;4935082;29;20054;-67
2022/08/27 02:03:40;;;;;;;4.95;4.55;;;;;;;20.84;73.82;98710.41;4910118;29;20062;-67
2022/08/27 02:06:09;;;;;;;5.60;5.10;;;;;;;20.83;74.14;98708.81;4926233;29;20507;-67
2022/08/27 02:08:36;;;;;;;5.22;4.82;;;;;;;20.82;73.69;98710.69;4934544;29;20071;-67
2022/08/27 02:11:03;;;;;;;5.80;5.30;;;;;;;20.78;73.90;98721.16;4934687;29;20066;-68
2022/08/27 02:13:30;;;;;;;6.18;5.68;;;;;;;20.80;74.29;98717.38;4933521;29;20048;-68
2022/08/27 02:15:57;;;;;;;5.68;5.18;;;;;;;20.81;74.16;98708.25;4933495;29;20055;-67
2022/08/27 02:18:23;;;;;;;6.10;5.60;;;;;;;20.81;73.95;98701.00;4933114;29;20107;-68
2022/08/27 02:20:50;;;;;;;6.63;6.03;;;;;;;20.80;74.01;98704.75;4934244;29;20044;-67
2022/08/27 02:23:17;;;;;;;6.85;6.25;;;;;;;20.78;73.94;98709.59;4934802;29;20083;-68
2022/08/27 02:25:47;;;;;;;5.85;5.35;;;;;;;20.76;73.92;98704.47;4934641;29;20098;-68
2022/08/27 02:28:13;;;;;;;6.20;5.70;;;;;;;20.72;73.48;98707.94;4937143;29;20522;-68
2022/08/27 02:30:40;;;;;;;5.43;4.93;;;;;;;20.68;73.80;98706.84;4937112;29;20055;-67
2022/08/27 02:33:07;;;;;;;4.97;4.50;;;;;;;20.68;73.61;98717.59;4930310;29;20126;-67
2022/08/27 02:35:41;;;;;;;5.22;4.82;;;;;;;20.66;73.89;98709.00;4913360;29;20167;-67
2022/08/27 02:38:09;;;;;;;5.27;4.87;;;;;;;20.64;73.70;98708.44;4937807;29;20456;-67
2022/08/27 02:40:36;;;;;;;5.25;4.75;;;;;;;20.64;73.52;98708.44;4936728;29;20051;-67
2022/08/27 02:43:03;;;;;;;6.80;6.25;;;;;;;20.58;73.58;98707.59;4936866;29;20063;-67
2022/08/27 02:45:30;;;;;;;6.95;6.35;;;;;;;20.53;73.78;98707.56;4905244;29;20048;-67
2022/08/27 02:47:57;;;;;;;7.28;6.68;;;;;;;20.51;73.62;98710.50;4937635;29;20488;-68
2022/08/27 02:50:23;;;;;;;6.95;6.35;;;;;;;20.51;74.05;98707.81;4936914;29;20146;-69
2022/08/27 02:52:53;;;;;;;5.32;4.93;;;;;;;20.50;74.17;98708.91;4938783;29;20429;-67
2022/08/27 02:55:21;;;;;;;7.00;6.40;;;;;;;20.51;74.11;98701.66;4905660;29;20059;-67
2022/08/27 02:57:48;;;;;;;6.55;5.95;;;;;;;20.49;74.03;98703.78;4920628;29;20052;-68
2022/08/27 03:00:17;;;;;;;7.15;6.55;;;;;;;20.46;74.35;98704.28;4920945;29;20523;-67
2022/08/27 03:02:44;;;;;;;6.63;6.13;;;;;;;20.43;73.93;98705.59;4929976;29;20044;-67
2022/08/27 03:05:12;;;;;;;5.28;4.88;;;;;;;20.42;74.13;98708.56;4913224;29;20051;-67
2022/08/27 03:07:39;;;;;;;6.13;5.63;;;;;;;20.39;74.34;98699.13;4938335;29;20035;-67
2022/08/27 03:10:06;;;;;;;4.85;4.45;;;;;;;20.38;74.47;98700.19;4937485;29;20067;-67
2022/08/27 03:12:35;;;;;;;4.07;3.75;;;;;;;20.39;74.34;98701.00;4938890;29;20050;-68
2022/08/27 03:15:07;;;;;;;5.68;5.22;;;;;;;20.38;74.41;98700.19;4921319;29;20048;-67
2022/08/27 03:20:19;;;;;;;5.68;5.20;;;;;;;20.34;74.55;98704.47;4936921;29;20138;-67
2022/08/27 03:22:45;;;;;;;5.22;4.82;;;;;;;20.34;74.99;98711.72;4937051;29;20039;-68
2022/08/27 03:25:14;;;;;;;4.90;4.55;;;;;;;20.34;74.60;98709.84;4921032;29;20635;-68
2022/08/27 03:27:41;;;;;;;5.00;4.60;;;;;;;20.34;74.46;98712.53;4937993;29;20500;-68
2022/08/27 03:30:18;;;;;;;4.47;4.07;;;;;;;20.32;74.43;98700.41;4937047;29;20039;-67
2022/08/27 03:32:45;;;;;;;5.13;4.72;;;;;;;20.30;74.51;98700.69;4927631;29;20139;-69
2022/08/27 03:35:13;;;;;;;4.82;4.43;;;;;;;20.25;74.49;98696.09;4929015;29;20047;-68
2022/08/27 03:37:40;;;;;;;4.00;3.70;;;;;;;20.26;74.98;98695.03;4935139;29;20105;-68
2022/08/27 03:40:07;;;;;;;4.10;3.80;;;;;;;20.26;74.72;98689.66;4935078;29;20062;-68
2022/08/27 03:42:34;;;;;;;3.42;3.22;;;;;;;20.24;74.62;98693.66;4935599;29;20417;-68
2022/08/27 03:45:00;;;;;;;3.08;2.88;;;;;;;20.22;75.00;98690.44;4919865;29;20039;-70
2022/08/27 03:47:27;;;;;;;2.92;2.72;;;;;;;20.22;74.86;98690.44;4937218;29;20071;-69
2022/08/27 03:49:54;;;;;;;2.60;2.40;;;;;;;20.24;74.73;98690.97;4936616;29;20047;-68
2022/08/27 03:52:21;;;;;;;2.83;2.50;;;;;;;20.23;74.45;98692.03;4937296;29;20599;-68
2022/08/27 03:54:47;;;;;;;2.40;2.30;;;;;;;20.26;74.43;98691.53;4939033;29;20054;-68
2022/08/27 03:57:14;;;;;;;3.30;3.10;;;;;;;20.28;74.29;98687.50;4939143;29;20415;-68
2022/08/27 03:59:40;;;;;;;2.92;2.72;;;;;;;20.26;74.31;98681.59;4922966;29;20079;-67
2022/08/27 04:02:07;;;;;;;2.53;2.33;;;;;;;20.27;74.18;98674.34;5395722;23;20054;-66
2022/08/27 04:04:34;;;;;;;2.40;2.20;;;;;;;20.28;73.98;98673.28;4936304;29;20048;-69
2022/08/27 04:07:00;;;;;;;2.35;2.22;;;;;;;20.28;74.14;98676.75;4935698;29;20051;-69
2022/08/27 04:09:27;;;;;;;2.85;2.10;;;;;;;20.29;74.53;98666.88;4936219;29;20054;-69
2022/08/27 04:11:54;;;;;;;1.80;1.70;;;;;;;20.29;74.50;98656.13;4919161;29;20060;-69
2022/08/27 04:14:20;;;;;;;2.20;2.10;;;;;;;20.27;74.35;98660.94;4936615;29;20040;-67
2022/08/27 04:16:53;;;;;;;1.80;1.70;;;;;;;20.22;74.36;98667.06;4935693;29;20048;-67
2022/08/27 04:19:21;;;;;;;2.47;1.83;;;;;;;20.20;74.45;98663.03;4918979;29;20077;-67
2022/08/27 04:21:52;;;;;;;2.03;1.80;;;;;;;20.18;74.54;98662.50;4935905;29;20151;-67
2022/08/27 04:24:19;;;;;;;1.95;1.83;;;;;;;20.16;74.73;98672.66;4935696;29;20066;-67
2022/08/27 04:26:46;;;;;;;1.77;1.67;;;;;;;20.17;74.45;98675.09;4935411;29;20054;-67
2022/08/27 04:29:13;;;;;;;2.20;2.10;;;;;;;20.15;74.03;98673.72;4902845;29;20058;-67
2022/08/27 04:31:39;;;;;;;2.50;2.30;;;;;;;20.17;74.45;98679.66;4935592;29;20044;-68
2022/08/27 04:34:06;;;;;;;3.00;2.80;;;;;;;20.12;74.38;98685.78;4946390;29;20047;-68
2022/08/27 04:36:33;;;;;;;2.13;2.03;;;;;;;20.09;74.60;98678.25;4937202;29;20143;-68
2022/08/27 04:39:00;;;;;;;2.00;1.90;;;;;;;20.07;74.42;98682.25;4954698;28;20047;-68
2022/08/27 04:41:27;;;;;;;2.25;1.50;;;;;;;20.08;74.61;98686.56;4937428;28;20047;-67
2022/08/27 04:43:56;;;;;;;1.80;1.70;;;;;;;20.08;74.45;98689.22;4954542;28;20039;-67
2022/08/27 04:46:28;;;;;;;1.98;1.88;;;;;;;20.04;74.14;98686.25;4954161;29;20071;-68
2022/08/27 04:48:56;;;;;;;1.63;1.52;;;;;;;19.99;74.16;98691.59;4954248;29;20535;-67
2022/08/27 04:51:24;;;;;;;2.40;1.85;;;;;;;19.98;74.20;98690.78;4954366;28;20403;-68
2022/08/27 04:53:51;;;;;;;2.10;2.00;;;;;;;19.95;74.06;98688.59;4937209;29;20055;-68
2022/08/27 04:56:21;;;;;;;1.50;1.40;;;;;;;19.95;74.18;98682.44;4954208;29;20050;-68
2022/08/27 04:58:49;;;;;;;1.80;1.70;;;;;;;19.95;74.03;98687.78;4937270;29;20039;-68
2022/08/27 05:01:18;;;;;;;1.85;1.60;;;;;;;19.93;73.87;98688.06;4936940;28;20046;-68
2022/08/27 05:03:45;;;;;;;1.95;1.85;;;;;;;19.92;73.88;98691.81;4928714;29;20591;-68
2022/08/27 05:06:12;;;;;;;2.97;1.75;;;;;;;19.94;74.04;98695.03;4953912;28;20043;-69
2022/08/27 05:08:39;;;;;;;1.95;1.85;;;;;;;19.98;74.00;98692.66;4954336;29;20047;-68
2022/08/27 05:11:09;;;;;;;1.75;1.65;;;;;;;20.02;73.73;98704.50;4954265;28;20058;-68
2022/08/27 05:13:36;;;;;;;2.05;1.60;;;;;;;20.07;73.82;98703.72;4937489;29;20522;-69
2022/08/27 05:16:06;;;;;;;2.15;1.63;;;;;;;20.12;73.44;98698.38;4954277;28;20069;-69
2022/08/27 05:18:35;;;;;;;1.60;1.50;;;;;;;20.13;73.49;98705.41;4936880;29;20083;-69
2022/08/27 05:21:26;;;;;;;1.90;1.80;;;;;;;20.13;73.47;98706.19;4954526;28;20047;-69
2022/08/27 05:23:55;;;;;;;1.48;1.38;;;;;;;20.14;73.47;98705.13;4936873;29;20062;-69
2022/08/27 05:26:22;;;;;;;1.63;1.30;;;;;;;20.15;73.37;98706.75;4937008;29;20433;-70
2022/08/27 05:28:49;;;;;;;1.50;1.40;;;;;;;20.18;73.06;98706.22;4953829;28;20047;-69
2022/08/27 05:31:16;;;;;;;1.40;1.30;;;;;;;20.17;73.15;98706.50;4936678;28;20054;-69
2022/08/27 05:33:43;;;;;;;2.30;1.67;;;;;;;20.15;72.90;98712.09;4945564;29;20519;-69
2022/08/27 05:36:16;;;;;;;1.05;1.05;;;;;;;20.19;73.47;98713.22;4953689;29;20051;-68
2022/08/27 05:38:43;;;;;;;1.02;1.02;;;;;;;20.24;73.46;98715.13;4936838;29;20047;-69
2022/08/27 05:41:13;;;;;;;1.33;1.23;;;;;;;20.27;73.19;98718.09;4953858;28;20047;-69
2022/08/27 05:43:41;;;;;;;1.00;1.00;;;;;;;20.30;73.14;98719.47;4953883;28;20083;-68
2022/08/27 05:46:15;;;;;;;1.30;1.20;;;;;;;20.31;73.26;98723.78;4937429;29;20076;-69
2022/08/27 05:48:43;;;;;;;2.05;1.52;;;;;;;20.36;72.94;98720.31;4953608;29;20517;-68
2022/08/27 05:51:22;;;;;;;2.13;1.92;;;;;;;20.37;72.64;98730.81;4953666;28;20466;-69
2022/08/27 05:54:00;;;;;;;1.60;1.50;;;;;;;20.39;72.66;98723.28;4953689;28;20043;-69
2022/08/27 05:56:35;;;;;;;2.22;2.03;;;;;;;20.39;72.36;98725.16;4953653;29;20455;-69
2022/08/27 06:01:49;;;;;;;2.38;2.17;;;;;;;20.30;72.44;98724.84;4937408;29;20059;-68
2022/08/27 06:04:16;;;;;;;1.95;1.85;;;;;;;20.31;72.81;98720.28;4949467;28;20053;-68
2022/08/27 06:06:44;;;;;;;1.55;1.45;;;;;;;20.36;72.97;98728.34;4940037;29;20511;-68
2022/08/27 06:09:15;;;;;;;1.40;1.30;;;;;;;20.47;72.94;98727.38;4957423;29;20422;-69
2022/08/27 06:11:42;;;;;;;1.60;1.50;;;;;;;20.54;72.58;98722.63;4957317;28;20051;-69
2022/08/27 06:14:09;;;;;;;1.35;1.25;;;;;;;20.62;72.98;98722.13;4957272;28;20049;-68
2022/08/27 06:16:37;;;;;;;1.70;1.42;;;;;;;20.72;72.50;98716.00;4957165;28;20047;-69
2022/08/27 06:19:04;;;;;;;2.10;1.90;;;;;;;20.77;72.22;98711.44;4957182;29;20062;-69
2022/08/27 06:21:31;;;;;;;2.65;2.45;;;;;;;20.82;71.76;98709.84;4957209;28;20051;-68
2022/08/27 06:23:57;;;;;;;3.00;2.72;;;;;;;20.86;71.05;98713.63;4957111;28;20043;-68
2022/08/27 06:26:25;;;;;;;2.83;2.63;;;;;;;20.85;71.34;98710.16;4956854;29;20047;-69
2022/08/27 06:28:53;;;;;;;2.00;1.90;;;;;;;20.94;72.00;98721.19;4939715;29;20051;-68
2022/08/27 06:31:25;;;;;;;1.88;1.77;;;;;;;21.07;71.66;98718.06;4939774;28;20062;-69
2022/08/27 06:33:56;;;;;;;1.80;1.70;;;;;;;21.21;71.28;98721.03;4948679;29;20500;-69
2022/08/27 06:36:26;;;;;;;3.03;2.38;;;;;;;21.28;70.96;98717.03;4956571;29;20098;-69
2022/08/27 06:38:53;;;;;;;2.78;2.58;;;;;;;21.32;70.34;98719.22;4956729;29;20051;-69
2022/08/27 06:41:22;;;;;;;2.92;2.72;;;;;;;21.28;70.61;98714.34;4956640;28;20047;-69
2022/08/27 06:43:50;;;;;;;2.10;2.00;;;;;;;21.31;70.94;98723.78;4956580;29;20051;-69
2022/08/27 06:46:23;;;;;;;1.90;1.80;;;;;;;21.30;71.30;98721.34;4956877;29;20085;-69
2022/08/27 06:48:55;;;;;;;2.05;1.95;;;;;;;21.33;71.28;98718.97;4939520;29;20054;-68
2022/08/27 06:51:25;;;;;;;2.10;2.00;;;;;;;21.33;71.24;98726.22;4956583;28;20051;-69
2022/08/27 06:53:54;;;;;;;1.80;1.70;;;;;;;21.32;70.93;98727.28;4956562;29;20495;-69
2022/08/27 06:56:21;;;;;;;1.60;1.50;;;;;;;21.37;71.22;98721.94;4956092;29;20054;-69
2022/08/27 06:58:52;;;;;;;1.73;1.63;;;;;;;21.41;71.01;98726.50;4939267;29;20063;-69
2022/08/27 07:01:23;;;;;;;1.73;1.63;;;;;;;21.44;70.62;98727.88;4956410;28;20047;-69
2022/08/27 07:03:49;;;;;;;1.52;1.42;;;;;;;21.46;70.65;98731.91;4951462;28;20054;-69
2022/08/27 07:06:17;;;;;;;1.50;1.40;;;;;;;21.54;70.82;98729.78;4959511;28;20051;-69
2022/08/27 07:08:44;;;;;;;2.47;2.28;;;;;;;21.63;70.46;98733.56;4957056;29;20039;-70
2022/08/27 07:11:19;;;;;;;2.35;2.15;;;;;;;21.68;70.25;98733.59;4956555;28;20514;-70
2022/08/27 07:13:47;;;;;;;2.83;2.63;;;;;;;21.76;70.16;98731.16;4955379;28;20039;-69
2022/08/27 07:16:16;;;;;;;2.90;2.60;;;;;;;21.80;70.25;98730.59;4956338;28;20047;-69
2022/08/27 07:18:44;;;;;;;3.92;3.63;;;;;;;21.82;69.95;98733.84;4939201;29;20527;-69
2022/08/27 07:21:11;;;;;;;3.50;3.20;;;;;;;21.82;69.65;98729.28;4956127;28;20483;-69
2022/08/27 07:23:38;;;;;;;2.67;2.47;;;;;;;21.88;69.99;98724.69;4938667;29;20051;-70
2022/08/27 07:26:09;;;;;;;5.35;4.85;;;;;;;21.97;69.53;98731.19;4938985;29;20055;-67
2022/08/27 07:28:37;;;;;;;5.35;4.85;;;;;;;22.01;68.95;98732.25;4956090;28;20055;-68
2022/08/27 07:31:07;;;;;;;4.50;4.10;;;;;;;22.00;68.94;98736.84;4955839;29;20043;-68
2022/08/27 07:33:36;;;;;;;4.93;4.50;;;;;;;22.00;68.81;98731.47;4948562;29;20055;-68
2022/08/27 07:36:05;;;;;;;4.32;3.92;;;;;;;21.95;68.94;98736.00;4955221;28;20126;-67
2022/08/27 07:38:32;;;;;;;3.65;3.35;;;;;;;21.96;69.43;98741.16;4955774;29;20494;-67
2022/08/27 07:41:03;;;;;;;4.40;4.00;;;;;;;21.98;69.46;98740.88;4955796;28;20043;-68
2022/08/27 07:46:23;;;;;;;3.65;3.35;;;;;;;21.99;68.71;98743.28;4956056;29;20047;-69
2022/08/27 07:48:50;;;;;;;4.80;4.40;;;;;;;22.00;68.72;98742.22;4955887;28;20049;-68
2022/08/27 07:51:19;;;;;;;3.67;3.38;;;;;;;22.08;68.89;98748.13;4956385;28;20049;-68
2022/08/27 07:53:46;;;;;;;3.85;3.55;;;;;;;22.14;68.37;98752.47;4938988;29;20075;-68
2022/08/27 07:56:13;;;;;;;4.43;4.03;;;;;;;22.22;68.42;98746.56;4938134;29;20051;-68
2022/08/27 07:58:40;;;;;;;3.95;3.65;;;;;;;22.27;68.68;98748.44;4938622;29;20047;-69
2022/08/27 08:01:06;;;;;;;4.82;4.43;;;;;;;22.37;68.09;98751.09;4938637;28;20451;-70
2022/08/27 08:03:33;;;;;;;7.03;6.32;;;;;;;22.42;67.07;98751.94;4948183;29;20040;-69
2022/08/27 08:06:06;;;;;;;7.28;6.57;;;;;;;22.42;67.33;98759.22;4954664;28;20427;-69
2022/08/27 08:08:35;;;;;;;6.20;5.60;;;;;;;22.46;67.24;98758.38;4955310;29;20039;-69
2022/08/27 08:11:05;;;;;;;6.20;5.60;;;;;;;22.52;67.28;98755.69;4938576;29;20627;-68
2022/08/27 08:13:31;;;;;;;5.75;5.28;;;;;;;22.56;67.05;98751.38;4954827;28;20039;-69
2022/08/27 08:15:58;;;;;;;5.47;4.97;;;;;;;22.56;67.24;98767.53;4954990;28;20043;-68
2022/08/27 08:18:26;;;;;;;5.30;4.80;;;;;;;22.59;67.28;98761.59;4921958;29;20054;-69
2022/08/27 08:20:57;;;;;;;6.28;5.68;;;;;;;22.62;67.39;98761.88;4937959;29;20062;-69
2022/08/27 08:23:25;;;;;;;7.80;7.00;;;;;;;22.52;66.61;98761.06;4954992;28;20039;-69
2022/08/27 08:25:51;;;;;;;8.88;8.00;;;;;;;22.38;66.59;98772.41;4954507;28;20043;-68
2022/08/27 08:28:18;;;;;;;17.33;15.45;;;;;;;22.18;66.40;98762.44;4954906;28;20051;-69
2022/08/27 08:30:46;;;;;;;13.00;11.73;;;;;;;22.08;66.62;98773.16;4937525;29;20119;-68
2022/08/27 08:33:13;;;;;;;10.43;9.00;;;;;;;22.05;66.57;98772.91;4950458;28;20126;-68
2022/08/27 08:35:39;;;;;;;8.93;8.07;;;;;;;22.07;66.42;98770.75;4950781;29;20050;-69
2022/08/27 08:38:07;;;;;;;7.75;7.03;;;;;;;22.15;66.56;98772.94;4937410;29;20039;-69
2022/08/27 08:40:39;;;;;;;10.95;8.98;;;;;;;22.18;66.06;98767.03;4954298;28;20051;-69
2022/08/27 08:43:17;;;;;;;9.43;8.52;;;;;;;22.31;65.86;98768.38;4954397;28;20550;-69
2022/08/27 08:45:44;;;;;;;8.68;7.35;;;;;;;22.41;65.39;98771.03;4954490;29;20067;-68
2022/08/27 08:48:16;;;;;;;7.03;6.32;;;;;;;22.60;65.76;98760.53;4954075;29;20059;-68
2022/08/27 08:51:22;;;;;;;8.10;7.30;;;;;;;22.84;64.94;98763.44;4954874;29;20047;-69
2022/08/27 08:54:05;;;;;;;7.45;6.75;;;;;;;22.98;64.49;98772.56;4954417;29;20491;-69
2022/08/27 08:56:51;;;;;;;9.02;8.20;;;;;;;23.05;63.72;98770.41;4954099;29;20043;-70
2022/08/27 08:59:28;;;;;;;9.65;8.75;;;;;;;23.04;63.72;98770.69;4954048;28;20051;-68
2022/08/27 09:01:57;;;;;;;9.20;8.30;;;;;;;23.08;63.30;98785.25;4954120;28;20452;-69
2022/08/27 09:04:25;;;;;;;8.35;7.55;;;;;;;23.14;63.23;98781.44;4928938;29;20035;-68
2022/08/27 09:07:10;;;;;;;8.65;7.85;;;;;;;23.21;63.15;98782.75;4953845;28;20047;-69
2022/08/27 09:10:13;;;;;;;7.85;7.13;;;;;;;23.29;63.08;98783.28;4954250;28;20047;-70
2022/08/27 09:12:40;;;;;;;8.80;7.90;;;;;;;23.31;62.61;98783.78;4944395;28;20058;-71
2022/08/27 09:15:10;;;;;;;6.60;5.97;;;;;;;23.33;62.99;98785.13;4937158;29;20043;-69
2022/08/27 09:17:40;;;;;;;8.57;7.57;;;;;;;23.37;62.51;98791.59;4953994;28;20109;-68
2022/08/27 09:20:09;;;;;;;8.18;7.35;;;;;;;23.39;62.46;98791.31;4936938;28;20479;-70
2022/08/27 09:23:21;;;;;;;8.30;7.50;;;;;;;23.38;62.00;98790.50;4954301;28;20062;-69
2022/08/27 09:25:47;;;;;;;6.13;5.63;;;;;;;23.44;62.25;98794.81;4936886;29;20047;-69
2022/08/27 09:31:08;;;;;;;7.15;6.45;;;;;;;23.61;61.90;98788.25;4954042;29;20495;-69
2022/08/27 09:33:36;;;;;;;7.93;7.22;;;;;;;23.66;61.88;98790.94;4946931;29;20067;-70
2022/08/27 09:36:22;;;;;;;7.32;6.72;;;;;;;23.79;61.85;98792.22;4914122;29;20044;-70
2022/08/27 09:38:57;;;;;;;7.80;7.13;;;;;;;23.93;61.71;98791.31;4914726;29;20468;-70
2022/08/27 09:41:34;;;;;;;7.95;6.78;;;;;;;;;;4915716;29;20084;-70
2022/08/27 09:44:08;;;;;;;7.82;7.07;;;;;;;24.09;61.09;98783.13;4917396;29;20044;-69
2022/08/27 09:46:35;;;;;;;5.32;4.82;;;;;;;24.18;61.02;98792.22;4915634;29;20072;-69
2022/08/27 09:49:13;;;;;;;6.53;5.60;;;;;;;24.30;60.80;98784.56;4915778;29;20311;-69
2022/08/27 09:51:42;;;;;;;7.13;6.10;;;;;;;24.41;60.59;98780.72;4915933;29;20576;-69
2022/08/27 09:54:10;;;;;;;6.43;5.93;;;;;;;24.40;60.26;98779.09;4916133;29;20048;-69
2022/08/27 09:56:40;;;;;;;7.90;7.20;;;;;;;24.34;60.11;98782.91;4916773;29;20048;-69
2022/08/27 09:59:07;;;;;;;6.53;5.93;;;;;;;24.21;60.18;98778.97;4902182;29;20044;-69
2022/08/27 10:01:48;;;;;;;6.78;6.10;;;;;;;24.23;60.32;98779.47;4920095;29;20052;-68
2022/08/27 10:04:22;;;;;;;8.70;6.30;;;;;;;24.32;60.07;98773.47;4938744;29;20093;-69
2022/08/27 10:06:50;;;;;;;6.90;6.07;;;;;;;24.42;59.91;98774.22;4938354;29;20048;-69
2022/08/27 10:09:34;;;;;;;6.55;5.95;;;;;;;24.55;58.95;98771.97;4939287;29;20058;-68
2022/08/27 10:12:09;;;;;;;7.03;6.32;;;;;;;24.68;58.88;98772.09;4906592;29;20044;-69
2022/08/27 10:14:57;;;;;;;6.00;5.40;;;;;;;24.82;59.10;98766.00;4923061;29;20403;-68
2022/08/27 10:17:35;;;;;;;6.88;4.82;;;;;;;24.96;58.56;98764.22;4940370;29;20567;-68
2022/08/27 10:20:20;;;;;;;5.03;4.55;;;;;;;24.98;58.25;98769.34;4948151;29;20058;-69
2022/08/27 10:23:09;;;;;;;5.78;5.28;;;;;;;25.01;58.36;98772.28;4946005;29;20058;-69
2022/08/27 10:25:41;;;;;;;6.03;5.53;;;;;;;25.04;57.97;98769.00;4943614;29;20058;-69
2022/08/27 10:28:39;;;;;;;5.60;5.10;;;;;;;25.12;57.65;98775.72;4909616;29;20052;-69
2022/08/27 10:31:23;;;;;;;6.03;5.47;;;;;;;25.18;57.29;98783.47;4942455;29;20062;-69
2022/08/27 10:34:00;;;;;;;6.50;5.90;;;;;;;25.25;57.03;98771.50;4935226;29;20048;-68
2022/08/27 10:36:55;;;;;;;5.68;5.13;;;;;;;25.40;56.88;98771.31;4959383;29;20051;-69
2022/08/27 10:39:44;;;;;;;6.10;5.50;;;;;;;25.66;56.49;98767.16;4946183;28;20507;-70
2022/08/27 10:42:25;;;;;;;5.30;4.80;;;;;;;25.85;56.35;98759.06;4945636;29;20043;-69
2022/08/27 10:45:10;;;;;;;5.95;5.43;;;;;;;25.93;55.66;98753.00;4942906;29;20043;-68
2022/08/27 10:48:24;;;;;;;4.93;4.50;;;;;;;26.10;55.43;98763.28;4961715;28;20051;-67
2022/08/27 10:51:07;;;;;;;;;;;;;;;26.19;54.70;98758.78;4929715;29;20539;-68
2022/08/27 10:53:45;;;;;;;4.53;4.13;;;;;;;26.29;54.97;98762.44;4942942;29;20499;-68
2022/08/27 10:56:29;;;;;;;5.40;4.90;;;;;;;26.46;54.42;98767.34;4947317;29;20600;-69
2022/08/27 10:59:20;;;;;;;6.32;5.68;;;;;;;26.47;53.70;98760.81;4964467;29;20515;-69
2022/08/27 11:02:19;;;;;;;4.57;4.20;;;;;;;26.47;53.98;98755.41;4963450;28;20079;-69
2022/08/27 11:04:50;;;;;;;6.32;5.80;;;;;;;26.52;54.10;98761.53;4950645;28;20055;-68
2022/08/27 11:07:23;;;;;;;5.65;5.05;;;;;;;26.42;54.12;98758.97;4966846;28;20054;-68
2022/08/27 11:09:57;;;;;;;6.15;5.55;;;;;;;26.18;54.65;98765.31;4971767;29;20099;-68
2022/08/27 11:12:37;;;;;;;5.90;5.40;;;;;;;26.00;54.49;98759.91;4952266;29;20542;-68
2022/08/27 11:15:09;;;;;;;5.18;4.78;;;;;;;25.87;55.01;98759.56;4962813;29;20063;-68
2022/08/27 11:18:03;;;;;;;5.50;5.10;;;;;;;25.69;55.16;98758.47;4961510;29;20126;-68
2022/08/27 11:20:39;;;;;;;5.80;5.30;;;;;;;25.53;55.22;98762.47;4951123;29;20400;-69
2022/08/27 11:23:11;;;;;;;5.57;5.07;;;;;;;25.40;55.65;98757.78;4962152;28;20117;-69
2022/08/27 11:25:49;;;;;;;5.32;4.93;;;;;;;25.34;55.44;98756.22;4959466;29;20051;-69
2022/08/27 11:28:20;;;;;;;5.35;4.82;;;;;;;25.34;55.96;98758.94;4960828;28;20051;-69
2022/08/27 11:31:10;;;;;;;5.00;4.60;;;;;;;25.27;55.90;98758.47;4959331;29;20464;-68
2022/08/27 11:33:46;;;;;;;4.65;4.28;;;;;;;25.26;55.97;98754.97;4948993;29;20119;-69
2022/08/27 11:36:22;;;;;;;4.72;4.32;;;;;;;25.30;56.10;98756.00;4900810;29;20052;-68
2022/08/27 11:39:03;;;;;;;4.55;4.18;;;;;;;25.43;55.87;98759.88;4900996;29;20055;-68
2022/08/27 11:41:42;;;;;;;5.95;5.45;;;;;;;25.46;55.49;98753.91;4917502;29;20127;-68
2022/08/27 11:44:13;;;;;;;4.97;4.47;;;;;;;25.48;55.65;98753.63;4918111;29;20319;-68
2022/08/27 11:46:47;;;;;;;5.45;5.00;;;;;;;25.54;55.49;98752.44;4918251;29;20044;-69
2022/08/27 11:49:39;;;;;;;5.72;5.22;;;;;;;25.61;55.42;98752.91;4900755;29;20508;-68
2022/08/27 11:52:07;;;;;;;5.55;5.15;;;;;;;25.73;54.92;98755.97;4917854;29;20399;-69
2022/08/27 11:55:09;;;;;;;5.97;5.47;;;;;;;25.77;55.18;98750.78;4918005;29;20051;-68
2022/08/27 11:57:37;;;;;;;4.90;4.50;;;;;;;25.85;54.90;98756.38;4919145;29;20052;-68
2022/08/27 12:00:19;;;;;;;7.40;6.70;;;;;;;25.91;54.93;98757.06;4902609;29;20078;-68
2022/08/27 12:03:04;;;;;;;6.90;6.03;;;;;;;26.04;54.18;98750.91;4937130;28;20051;-68
2022/08/27 12:05:36;;;;;;;6.72;6.13;;;;;;;26.16;53.59;98753.16;4954338;28;20046;-68